createdAt,value
2023-04-28T00:06:22.060Z,97479.03
2023-04-28T00:13:01.145Z,97483.44
2023-04-28T00:20:00.833Z,97483.09
2023-04-28T00:27:00.647Z,97473.81
2023-04-28T00:29:52.958Z,97477.13
2023-04-28T00:32:27.577Z,97470.47
2023-04-28T00:34:55.871Z,97471.44
2023-04-28T00:37:23.450Z,97475.97
2023-04-28T00:39:55.307Z,97464.22
2023-04-28T00:42:24.175Z,97465.59
2023-04-28T00:44:51.961Z,97463.66
2023-04-28T00:47:20.053Z,97462.25
2023-04-28T00:49:49.590Z,97462.94
2023-04-28T00:52:17.197Z,97449.25
2023-04-28T00:54:44.774Z,97443.19
2023-04-28T00:57:12.611Z,97446.66
2023-04-28T00:59:41.613Z,97445.38
2023-04-28T01:02:09.195Z,97443.06
2023-04-28T01:04:36.943Z,97443.56
2023-04-28T01:07:05.001Z,97440.00
2023-04-28T01:09:33.279Z,97442.16
2023-04-28T01:12:00.959Z,97432.78
2023-04-28T01:14:42.036Z,97437.41
2023-04-28T01:17:09.743Z,97429.16
2023-04-28T01:19:37.876Z,97427.75
2023-04-28T01:22:05.741Z,97431.78
2023-04-28T01:24:34.592Z,97423.59
2023-04-28T01:27:06.121Z,97425.78
2023-04-28T01:29:33.621Z,97427.88
2023-04-28T01:32:01.270Z,97423.22
2023-04-28T01:34:28.833Z,97426.84
2023-04-28T01:36:56.601Z,97424.84
2023-04-28T01:39:24.451Z,97422.19
2023-04-28T01:41:53.430Z,97414.31
2023-04-28T01:44:20.960Z,97421.91
2023-04-28T01:46:49.475Z,97420.34
2023-04-28T01:49:16.984Z,97409.91
2023-04-28T01:51:44.507Z,97392.19
2023-04-28T01:54:12.419Z,97386.69
2023-04-28T01:56:40.659Z,97397.47
2023-04-28T01:59:09.503Z,97393.91
2023-04-28T02:01:37.059Z,97394.41
2023-04-28T02:04:04.707Z,97399.59
2023-04-28T02:06:34.819Z,97398.06
2023-04-28T02:09:02.377Z,97385.31
2023-04-28T02:11:29.948Z,97380.03
2023-04-28T02:13:58.093Z,97373.94
2023-04-28T02:16:27.079Z,97378.06
2023-04-28T02:18:54.670Z,97377.78
2023-04-28T02:21:22.212Z,97372.78
2023-04-28T02:23:50.490Z,97365.31
2023-04-28T02:26:18.069Z,97367.25
2023-04-28T02:28:45.838Z,97368.56
2023-04-28T02:31:14.098Z,97361.34
2023-04-28T02:33:43.321Z,97366.28
2023-04-28T02:36:11.497Z,97358.78
2023-04-28T02:38:39.022Z,97359.91
2023-04-28T02:41:08.981Z,97361.22
2023-04-28T02:43:37.219Z,97360.28
2023-04-28T02:46:05.210Z,97358.94
2023-04-28T02:48:33.463Z,97369.66
2023-04-28T02:51:02.360Z,97363.56
2023-04-28T02:53:29.987Z,97354.66
2023-04-28T02:55:57.565Z,97351.09
2023-04-28T02:58:25.350Z,97343.50
2023-04-28T03:00:52.908Z,97338.03
2023-04-28T03:03:20.606Z,97330.59
2023-04-28T03:05:48.353Z,97332.97
2023-04-28T03:08:19.050Z,97314.69
2023-04-28T03:10:46.545Z,97321.53
2023-04-28T03:13:14.123Z,97313.41
2023-04-28T03:15:43.261Z,97308.78
2023-04-28T03:18:10.935Z,97311.91
2023-04-28T03:20:38.564Z,97307.56
2023-04-28T03:23:06.272Z,97315.47
2023-04-28T03:25:35.405Z,97322.31
2023-04-28T03:28:03.566Z,97322.31
2023-04-28T03:30:31.108Z,97319.84
2023-04-28T03:32:58.888Z,97310.69
2023-04-28T03:35:26.530Z,97304.63
2023-04-28T03:37:54.147Z,97301.06
2023-04-28T03:40:21.714Z,97303.03
2023-04-28T03:43:05.142Z,97298.44
2023-04-28T03:45:40.137Z,97293.69
2023-04-28T03:48:07.980Z,97291.91
2023-04-28T03:50:35.524Z,97287.97
2023-04-28T03:53:03.151Z,97281.78
2023-04-28T03:55:31.105Z,97284.41
2023-04-28T03:57:58.817Z,97292.59
2023-04-28T04:00:28.093Z,97289.34
2023-04-28T04:02:56.740Z,97285.06
2023-04-28T04:05:24.778Z,97282.44
2023-04-28T04:07:52.403Z,97281.13
2023-04-28T04:10:20.048Z,97285.69
2023-04-28T04:12:49.804Z,97283.22
2023-04-28T04:15:17.511Z,97284.41
2023-04-28T04:17:48.424Z,97281.44
2023-04-28T04:20:16.189Z,97282.09
2023-04-28T04:22:45.398Z,97280.16
2023-04-28T04:25:13.236Z,97266.56
2023-04-28T04:27:41.509Z,97258.53
2023-04-28T04:30:09.924Z,97256.56
2023-04-28T04:32:38.269Z,97260.84
2023-04-28T04:35:07.633Z,97251.97
2023-04-28T04:37:35.209Z,97247.03
2023-04-28T04:40:03.615Z,97248.00
2023-04-28T04:42:36.935Z,97249.66
2023-04-28T04:45:08.281Z,97245.69
2023-04-28T04:47:36.673Z,97243.06
2023-04-28T04:50:04.360Z,97233.69
2023-04-28T04:52:33.458Z,97241.97
2023-04-28T04:55:01.041Z,97232.59
2023-04-28T04:57:29.447Z,97236.19
2023-04-28T05:00:26.326Z,97242.63
2023-04-28T05:02:54.943Z,97231.91
2023-04-28T05:05:23.387Z,97233.09
2023-04-28T05:08:15.608Z,97222.56
2023-04-28T05:10:43.275Z,97221.78
2023-04-28T05:13:11.847Z,97208.00
2023-04-28T05:15:40.350Z,97205.06
2023-04-28T05:18:43.224Z,97205.47
2023-04-28T05:21:11.766Z,97212.03
2023-04-28T05:23:40.691Z,97212.03
2023-04-28T05:26:08.221Z,97208.88
2023-04-28T05:28:36.325Z,97201.31
2023-04-28T05:31:03.979Z,97201.13
2023-04-28T05:33:33.194Z,97181.13
2023-04-28T05:36:02.843Z,97183.47
2023-04-28T05:38:31.912Z,97176.16
2023-04-28T05:41:04.306Z,97181.38
2023-04-28T05:43:31.976Z,97175.84
2023-04-28T05:45:59.595Z,97178.03
2023-04-28T05:48:27.223Z,97179.34
2023-04-28T05:50:55.529Z,97188.38
2023-04-28T05:53:24.950Z,97179.69
2023-04-28T05:55:55.512Z,97188.59
2023-04-28T05:58:24.569Z,97181.13
2023-04-28T06:00:52.079Z,97184.31
2023-04-28T06:03:20.739Z,97178.06
2023-04-28T06:05:49.420Z,97162.25
2023-04-28T06:08:17.536Z,97164.00
2023-04-28T06:10:45.142Z,97163.63
2023-04-28T06:13:14.479Z,97160.16
2023-04-28T06:15:44.159Z,97145.47
2023-04-28T06:18:11.793Z,97147.88
2023-04-28T06:20:39.436Z,97145.88
2023-04-28T06:23:07.376Z,97149.88
2023-04-28T06:25:34.954Z,97134.16
2023-04-28T06:28:02.744Z,97161.25
2023-04-28T06:30:30.303Z,97163.75
2023-04-28T06:32:59.306Z,97170.72
2023-04-28T06:35:27.012Z,97170.25
2023-04-28T06:37:55.329Z,97173.91
2023-04-28T06:40:22.880Z,97201.91
2023-04-28T06:42:56.820Z,97217.66
2023-04-28T06:45:31.537Z,97225.50
2023-04-28T06:48:00.749Z,97236.75
2023-04-28T06:50:29.330Z,97223.88
2023-04-28T06:52:57.344Z,97216.09
2023-04-28T06:55:24.879Z,97222.63
2023-04-28T06:57:52.397Z,97228.78
2023-04-28T07:00:20.064Z,97229.31
2023-04-28T07:02:48.290Z,97225.41
2023-04-28T07:05:17.327Z,97226.75
2023-04-28T07:07:45.026Z,97226.84
2023-04-28T07:10:13.314Z,97227.69
2023-04-28T07:12:41.834Z,97215.53
2023-04-28T07:15:10.442Z,97219.97
2023-04-28T07:17:38.224Z,97221.91
2023-04-28T07:20:07.040Z,97222.53
2023-04-28T07:22:35.934Z,97217.06
2023-04-28T07:25:03.420Z,97211.69
2023-04-28T07:27:30.969Z,97204.19
2023-04-28T07:29:58.560Z,97214.09
2023-04-28T07:32:26.131Z,97215.66
2023-04-28T07:34:53.722Z,97216.28
2023-04-28T07:37:21.272Z,97210.59
2023-04-28T07:39:50.257Z,97211.00
2023-04-28T07:42:19.075Z,97205.31
2023-04-28T07:44:46.582Z,97206.94
2023-04-28T07:47:14.238Z,97195.72
2023-04-28T07:49:41.743Z,97205.84
2023-04-28T07:52:09.843Z,97205.84
2023-04-28T07:54:37.441Z,97198.97
2023-04-28T07:57:07.002Z,97198.16
2023-04-28T07:59:34.556Z,97188.22
2023-04-28T08:02:02.148Z,97182.75
2023-04-28T08:04:31.602Z,97182.94
2023-04-28T08:07:02.653Z,97187.97
2023-04-28T08:09:30.284Z,97181.91
2023-04-28T08:11:58.979Z,97172.19
2023-04-28T08:14:27.913Z,97164.28
2023-04-28T08:16:55.477Z,97167.31
2023-04-28T08:19:23.616Z,97159.19
2023-04-28T08:21:51.122Z,97161.03
2023-04-28T08:24:18.734Z,97172.56
2023-04-28T08:26:46.345Z,97158.75
2023-04-28T08:29:13.843Z,97166.69
2023-04-28T08:31:42.749Z,97159.59
2023-04-28T08:34:10.290Z,97153.47
2023-04-28T08:36:37.984Z,97150.31
2023-04-28T08:39:08.583Z,97142.53
2023-04-28T08:41:36.167Z,97149.47
2023-04-28T08:44:03.667Z,97135.81
2023-04-28T08:46:31.263Z,97149.44
2023-04-28T08:49:00.883Z,97143.97
2023-04-28T08:51:29.727Z,97135.91
2023-04-28T08:54:18.948Z,97148.09
2023-04-28T08:56:46.028Z,97156.59
2023-04-28T08:59:13.810Z,97157.19
2023-04-28T09:01:41.390Z,97152.28
2023-04-28T09:04:13.354Z,97154.66
2023-04-28T09:06:41.831Z,97147.91
2023-04-28T09:09:26.164Z,97145.25
2023-04-28T09:11:55.490Z,97153.28
2023-04-28T09:14:23.426Z,97150.09
2023-04-28T09:16:51.761Z,97148.16
2023-04-28T09:19:20.740Z,97138.44
2023-04-28T09:21:49.386Z,97133.91
2023-04-28T09:24:26.772Z,97135.22
2023-04-28T09:26:55.590Z,97145.53
2023-04-28T09:29:23.559Z,97138.88
2023-04-28T09:31:51.219Z,97147.59
2023-04-28T09:34:19.047Z,97137.00
2023-04-28T09:36:48.059Z,97146.94
2023-04-28T09:39:15.880Z,97130.28
2023-04-28T09:41:43.905Z,97121.38
2023-04-28T09:44:12.027Z,97116.81
2023-04-28T09:46:39.594Z,97108.34
2023-04-28T09:49:07.124Z,97100.63
2023-04-28T09:51:37.855Z,97104.66
2023-04-28T09:54:08.876Z,97092.50
2023-04-28T09:56:40.851Z,97083.38
2023-04-28T09:59:08.459Z,97077.19
2023-04-28T10:01:38.633Z,97080.78
2023-04-28T10:04:06.611Z,97073.63
2023-04-28T10:06:34.942Z,97052.94
2023-04-28T10:09:02.982Z,97043.69
2023-04-28T10:11:33.883Z,97016.81
2023-04-28T10:14:01.692Z,97028.91
2023-04-28T10:16:31.047Z,97016.63
2023-04-28T10:18:58.661Z,97008.28
2023-04-28T10:21:28.627Z,97001.19
2023-04-28T10:24:00.632Z,96991.56
2023-04-28T10:26:31.589Z,96987.84
2023-04-28T10:29:01.673Z,96972.84
2023-04-28T10:31:29.976Z,96951.16
2023-04-28T10:33:57.649Z,96961.91
2023-04-28T10:36:50.847Z,96956.13
2023-04-28T10:39:21.538Z,96951.97
2023-04-28T10:41:49.445Z,96946.25
2023-04-28T10:44:35.885Z,96940.66
2023-04-28T10:47:04.900Z,96941.16
2023-04-28T10:49:47.575Z,96951.53
2023-04-28T10:52:29.986Z,96946.19
2023-04-28T10:55:22.152Z,96934.91
2023-04-28T10:57:53.412Z,96933.91
2023-04-28T11:00:27.965Z,96925.19
2023-04-28T11:02:59.375Z,96908.38
2023-04-28T11:05:28.821Z,96923.09
2023-04-28T11:08:33.484Z,96917.75
2023-04-28T11:11:31.339Z,96928.28
2023-04-28T11:14:13.967Z,96937.09
2023-04-28T11:16:49.655Z,96931.56
2023-04-28T11:19:18.547Z,96917.06
2023-04-28T11:21:46.080Z,96913.63
2023-04-28T11:24:13.772Z,96910.03
2023-04-28T11:26:41.394Z,96910.94
2023-04-28T11:29:09.212Z,96908.50
2023-04-28T11:31:37.266Z,96905.72
2023-04-28T11:34:05.670Z,96910.19
2023-04-28T11:36:35.835Z,96909.59
2023-04-28T11:39:05.050Z,96910.22
2023-04-28T11:41:35.748Z,96897.13
2023-04-28T11:44:10.369Z,96900.06
2023-04-28T11:46:37.949Z,96905.78
2023-04-28T11:49:05.788Z,96900.91
2023-04-28T11:51:38.209Z,96903.81
2023-04-28T11:54:07.274Z,96895.69
2023-04-28T11:56:37.914Z,96877.03
2023-04-28T11:59:06.243Z,96868.88
2023-04-28T12:01:34.142Z,96857.13
2023-04-28T12:04:01.940Z,96850.94
2023-04-28T12:06:29.838Z,96837.53
2023-04-28T12:09:04.263Z,96843.97
2023-04-28T12:11:32.181Z,96846.66
2023-04-28T12:14:06.242Z,96847.66
2023-04-28T12:16:43.393Z,96862.94
2023-04-28T12:19:11.326Z,96850.72
2023-04-28T12:21:39.514Z,96854.97
2023-04-28T12:24:17.959Z,96852.13
2023-04-28T12:26:45.738Z,96864.53
2023-04-28T12:29:28.148Z,96886.88
2023-04-28T12:31:55.720Z,96889.09
2023-04-28T12:34:23.532Z,96886.69
2023-04-28T12:36:51.187Z,96891.56
2023-04-28T12:39:20.135Z,96897.25
2023-04-28T12:41:47.875Z,96896.22
2023-04-28T12:44:16.129Z,96884.63
2023-04-28T12:46:44.044Z,96880.78
2023-04-28T12:49:11.621Z,96876.31
2023-04-28T12:51:39.726Z,96873.88
2023-04-28T12:54:07.576Z,96871.00
2023-04-28T12:56:36.547Z,96877.53
2023-04-28T12:59:04.160Z,96872.44
2023-04-28T13:01:31.851Z,96883.22
2023-04-28T13:03:59.564Z,96876.72
2023-04-28T13:06:27.916Z,96872.66
2023-04-28T13:08:55.588Z,96865.31
2023-04-28T13:11:24.824Z,96861.06
2023-04-28T13:13:57.142Z,96867.13
2023-04-28T13:16:28.865Z,96866.53
2023-04-28T13:18:57.774Z,96857.97
2023-04-28T13:21:26.695Z,96854.75
2023-04-28T13:23:56.045Z,96839.28
2023-04-28T13:26:24.880Z,96848.00
2023-04-28T13:28:55.909Z,96842.66
2023-04-28T13:31:23.460Z,96832.63
2023-04-28T13:33:51.578Z,96823.00
2023-04-28T13:36:19.418Z,96818.94
2023-04-28T13:38:48.979Z,96820.78
2023-04-28T13:41:16.605Z,96814.66
2023-04-28T13:43:48.162Z,96806.78
2023-04-28T13:46:17.158Z,96805.13
2023-04-28T13:48:44.922Z,96812.91
2023-04-28T13:51:12.667Z,96807.19
2023-04-28T13:53:40.261Z,96803.53
2023-04-28T13:56:08.297Z,96796.19
2023-04-28T13:58:35.921Z,96785.22
2023-04-28T14:01:04.004Z,96790.47
2023-04-28T14:03:33.128Z,96801.25
2023-04-28T14:06:00.859Z,96793.72
2023-04-28T14:08:29.197Z,96789.22
2023-04-28T14:10:59.721Z,96788.47
2023-04-28T14:13:27.533Z,96780.50
2023-04-28T14:15:58.993Z,96779.66
2023-04-28T14:18:27.291Z,96784.59
2023-04-28T14:20:56.141Z,96775.91
2023-04-28T14:23:23.750Z,96773.59
2023-04-28T14:25:52.086Z,96769.72
2023-04-28T14:28:22.125Z,96766.09
2023-04-28T14:30:50.207Z,96751.16
2023-04-28T14:33:17.873Z,96760.78
2023-04-28T14:35:45.471Z,96762.34
2023-04-28T14:38:17.547Z,96765.59
2023-04-28T14:40:45.069Z,96768.19
2023-04-28T14:43:14.019Z,96768.72
2023-04-28T14:45:41.978Z,96775.69
2023-04-28T14:48:10.587Z,96755.06
2023-04-28T14:50:38.336Z,96762.34
2023-04-28T14:53:07.722Z,96759.16
2023-04-28T14:55:37.252Z,96750.59
2023-04-28T14:58:04.948Z,96744.91
2023-04-28T15:00:34.999Z,96743.69
2023-04-28T15:03:02.631Z,96740.03
2023-04-28T15:05:30.266Z,96729.16
2023-04-28T15:07:58.191Z,96746.31
2023-04-28T15:10:25.703Z,96734.25
2023-04-28T15:12:54.720Z,96734.94
2023-04-28T15:15:22.213Z,96735.22
2023-04-28T15:17:50.005Z,96742.69
2023-04-28T15:20:17.514Z,96747.03
2023-04-28T15:22:45.663Z,96728.63
2023-04-28T15:25:13.379Z,96729.88
2023-04-28T15:27:40.936Z,96721.69
2023-04-28T15:30:10.787Z,96719.25
2023-04-28T15:32:38.474Z,96710.13
2023-04-28T15:35:06.612Z,96708.94
2023-04-28T15:38:00.317Z,96706.09
2023-04-28T15:44:07.486Z,96697.97
2023-04-28T15:46:39.503Z,96692.50
2023-04-28T15:49:07.031Z,96691.13
2023-04-28T15:51:34.702Z,96682.81
2023-04-28T15:54:02.359Z,96678.75
2023-04-28T15:56:31.064Z,96679.38
2023-04-28T15:58:58.598Z,96684.22
2023-04-28T16:01:26.319Z,96676.03
2023-04-28T16:03:55.374Z,96680.50
2023-04-28T16:06:23.021Z,96680.09
2023-04-28T16:08:50.726Z,96676.38
2023-04-28T16:11:21.524Z,96665.38
2023-04-28T16:13:50.032Z,96671.31
2023-04-28T16:16:17.819Z,96663.66
2023-04-28T16:18:45.428Z,96665.63
2023-04-28T16:21:17.348Z,96671.38
2023-04-28T16:23:45.442Z,96668.03
2023-04-28T16:26:13.447Z,96671.72
2023-04-28T16:28:40.969Z,96687.25
2023-04-28T16:31:10.874Z,96690.06
2023-04-28T16:33:38.677Z,96685.09
2023-04-28T16:36:06.704Z,96694.75
2023-04-28T16:38:35.661Z,96692.06
2023-04-28T16:41:03.157Z,96691.63
2023-04-28T16:43:32.136Z,96696.09
2023-04-28T16:45:59.746Z,96689.69
2023-04-28T16:48:27.997Z,96692.09
2023-04-28T16:50:58.772Z,96692.94
2023-04-28T16:53:26.711Z,96682.66
2023-04-28T16:55:55.544Z,96683.00
2023-04-28T16:58:30.308Z,96700.53
2023-04-28T17:00:57.859Z,96691.06
2023-04-28T17:03:27.740Z,96685.59
2023-04-28T17:05:55.447Z,96686.28
2023-04-28T17:08:23.014Z,96673.25
2023-04-28T17:10:50.516Z,96672.53
2023-04-28T17:13:19.733Z,96666.47
2023-04-28T17:15:47.228Z,96663.88
2023-04-28T17:18:14.806Z,96656.50
2023-04-28T17:20:42.462Z,96652.53
2023-04-28T17:23:10.036Z,96649.53
2023-04-28T17:25:38.534Z,96660.59
2023-04-28T17:28:08.570Z,96659.22
2023-04-28T17:30:38.266Z,96657.13
2023-04-28T17:33:05.864Z,96669.88
2023-04-28T17:35:34.088Z,96669.47
2023-04-28T17:38:02.173Z,96663.47
2023-04-28T17:40:29.685Z,96658.44
2023-04-28T17:42:57.346Z,96663.75
2023-04-28T17:45:24.842Z,96651.16
2023-04-28T17:47:54.014Z,96655.16
2023-04-28T17:50:22.049Z,96651.69
2023-04-28T17:52:49.903Z,96661.03
2023-04-28T17:55:17.563Z,96660.53
2023-04-28T17:57:45.054Z,96659.69
2023-04-28T18:00:13.254Z,96656.00
2023-04-28T18:02:41.326Z,96650.03
2023-04-28T18:05:10.628Z,96662.56
2023-04-28T18:07:38.555Z,96652.34
2023-04-28T18:10:06.366Z,96649.91
2023-04-28T18:12:36.835Z,96639.16
2023-04-28T18:15:04.408Z,96641.44
2023-04-28T18:17:33.269Z,96644.31
2023-04-28T18:20:00.810Z,96639.09
2023-04-28T18:22:29.704Z,96641.97
2023-04-28T18:25:00.237Z,96641.59
2023-04-28T18:27:27.818Z,96648.13
2023-04-28T18:29:55.999Z,96643.06
2023-04-28T18:32:23.706Z,96633.69
2023-04-28T18:34:51.546Z,96633.84
2023-04-28T18:37:19.213Z,96633.47
2023-04-28T18:39:48.053Z,96638.38
2023-04-28T18:42:15.620Z,96631.88
2023-04-28T18:44:43.383Z,96632.00
2023-04-28T18:47:11.019Z,96629.13
2023-04-28T18:49:39.501Z,96627.75
2023-04-28T18:52:07.064Z,96633.50
2023-04-28T18:54:35.375Z,96630.63
2023-04-28T18:57:05.032Z,96634.84
2023-04-28T18:59:32.864Z,96632.78
2023-04-28T19:02:00.967Z,96636.38
2023-04-28T19:04:31.935Z,96630.25
2023-04-28T19:07:03.502Z,96632.44
2023-04-28T19:09:31.821Z,96633.75
2023-04-28T19:12:02.294Z,96635.63
2023-04-28T19:14:31.586Z,96631.47
2023-04-28T19:16:59.178Z,96629.22
2023-04-28T19:19:26.712Z,96629.03
2023-04-28T19:21:54.330Z,96627.66
2023-04-28T19:24:23.703Z,96629.13
2023-04-28T19:26:51.805Z,96630.06
2023-04-28T19:29:20.040Z,96630.53
2023-04-28T19:31:51.755Z,96621.25
2023-04-28T19:34:19.257Z,96623.00
2023-04-28T19:36:49.319Z,96620.25
2023-04-28T19:39:17.437Z,96627.94
2023-04-28T19:41:46.953Z,96631.84
2023-04-28T19:44:14.761Z,96625.19
2023-04-28T19:46:43.317Z,96628.16
2023-04-28T19:49:13.650Z,96624.59
2023-04-28T19:51:41.240Z,96625.41
2023-04-28T19:54:08.718Z,96628.84
2023-04-28T19:56:36.264Z,96618.44
2023-04-28T19:59:03.895Z,96616.50
2023-04-28T20:01:31.576Z,96607.53
2023-04-28T20:04:00.506Z,96617.66
2023-04-28T20:06:29.581Z,96618.38
2023-04-28T20:08:57.081Z,96620.03
2023-04-28T20:11:24.703Z,96617.03
2023-04-28T20:13:52.465Z,96619.03
2023-04-28T20:16:20.617Z,96609.94
2023-04-28T20:18:50.499Z,96619.31
2023-04-28T20:21:18.044Z,96613.59
2023-04-28T20:23:50.756Z,96618.50
2023-04-28T20:26:18.365Z,96619.50
2023-04-28T20:28:46.485Z,96622.13
2023-04-28T20:31:14.865Z,96609.56
2023-04-28T20:33:45.415Z,96614.78
2023-04-28T20:36:16.735Z,96608.00
2023-04-28T20:38:44.372Z,96611.84
2023-04-28T20:41:13.245Z,96607.16
2023-04-28T20:43:41.140Z,96605.44
2023-04-28T20:46:09.949Z,96612.81
2023-04-28T20:48:37.567Z,96620.56
2023-04-28T20:51:05.212Z,96622.47
2023-04-28T20:53:33.140Z,96625.94
2023-04-28T20:56:00.732Z,96635.53
2023-04-28T20:58:30.909Z,96629.88
2023-04-28T21:01:02.122Z,96640.41
2023-04-28T21:03:30.780Z,96640.50
2023-04-28T21:06:14.851Z,96644.44
2023-04-28T21:08:45.585Z,96650.59
2023-04-28T21:11:13.618Z,96642.13
2023-04-28T21:13:43.004Z,96656.72
2023-04-28T21:16:15.960Z,96650.66
2023-04-28T21:18:45.207Z,96651.88
2023-04-28T21:21:13.074Z,96649.44
2023-04-28T21:23:40.607Z,96657.56
2023-04-28T21:26:08.417Z,96657.16
2023-04-28T21:28:36.284Z,96664.66
2023-04-28T21:31:05.313Z,96663.03
2023-04-28T21:33:32.825Z,96657.97
2023-04-28T21:36:05.134Z,96662.41
2023-04-28T21:38:33.314Z,96672.38
2023-04-28T21:41:00.852Z,96672.78
2023-04-28T21:43:28.375Z,96672.97
2023-04-28T21:45:55.960Z,96681.66
2023-04-28T21:48:24.848Z,96680.63
2023-04-28T21:50:52.392Z,96682.03
2023-04-28T21:53:20.527Z,96676.97
2023-04-28T21:55:48.411Z,96672.91
2023-04-28T21:58:16.550Z,96697.59
2023-04-28T22:00:44.417Z,96740.38
2023-04-28T22:03:13.872Z,96763.28
2023-04-28T22:05:42.912Z,96786.34
2023-04-28T22:08:10.572Z,96793.28
2023-04-28T22:10:38.292Z,96808.69
2023-04-28T22:13:06.170Z,96840.31
2023-04-28T22:15:33.765Z,96851.88
2023-04-28T22:18:01.553Z,96875.66
2023-04-28T22:20:29.113Z,96886.50
2023-04-28T22:22:58.641Z,96901.63
2023-04-28T22:25:26.156Z,96913.97
2023-04-28T22:27:53.680Z,96922.16
2023-04-28T22:30:21.832Z,96939.13
2023-04-28T22:32:50.612Z,96978.66
2023-04-28T22:35:18.189Z,97014.06
2023-04-28T22:37:45.702Z,97056.31
2023-04-28T22:40:14.636Z,97097.06
2023-04-28T22:42:43.565Z,97147.97
2023-04-28T22:45:11.788Z,97183.66
2023-04-28T22:47:40.065Z,97232.53
2023-04-28T22:50:08.431Z,97299.00
2023-04-28T22:52:36.022Z,97326.50
2023-04-28T22:55:03.721Z,97371.13
2023-04-28T22:57:32.599Z,97415.53
2023-04-28T23:00:00.184Z,97433.97
2023-04-28T23:02:27.913Z,97462.66
2023-04-28T23:04:56.656Z,97496.13
2023-04-28T23:07:24.282Z,97515.22
2023-04-28T23:09:52.082Z,97550.59
2023-04-28T23:12:19.880Z,97567.78
2023-04-28T23:14:48.704Z,97578.75
2023-04-28T23:17:16.387Z,97595.47
2023-04-28T23:19:43.913Z,97605.22
2023-04-28T23:22:11.407Z,97619.81
2023-04-28T23:24:39.987Z,97628.41
2023-04-28T23:27:07.830Z,97627.47
2023-04-28T23:29:36.110Z,97649.34
2023-04-28T23:32:05.183Z,97643.19
2023-04-28T23:34:32.728Z,97658.16
2023-04-28T23:37:00.249Z,97657.25
2023-04-28T23:39:29.978Z,97665.00
2023-04-28T23:41:58.666Z,97664.91
2023-04-28T23:44:26.172Z,97666.38
2023-04-28T23:46:55.909Z,97681.81
2023-04-28T23:49:25.078Z,97694.75
2023-04-28T23:51:52.900Z,97700.56
2023-04-28T23:54:20.417Z,97699.69
2023-04-28T23:56:48.026Z,97725.75
2023-04-28T23:59:15.530Z,97742.63
